Time;durP1;ratioP1;P1;durP2;ratioP2;P2;SDS_P1;SDS_P2;PMS_P1;PMS_P2;Temp;Humidity;BMP_temperature;BMP_pressure;BME280_temperature;BME280_humidity;BME280_pressure;Samples;Min_cycle;Max_cycle;Signal;HPM_P1;HPM_P2
2022/10/20 00:00:55;;;;;;;9.10;5.07;;;10.80;99.90;;;;;;5092687;28;20116;-69
2022/10/20 00:03:22;;;;;;;11.70;4.90;;;10.80;99.90;;;;;;5093115;28;20546;-70
2022/10/20 00:05:48;;;;;;;7.30;4.20;;;10.80;99.90;;;;;;5092969;28;20115;-69
2022/10/20 00:08:14;;;;;;;7.77;4.63;;;10.70;99.90;;;;;;5093048;28;20110;-70
2022/10/20 00:10:40;;;;;;;10.50;4.83;;;10.70;99.90;;;;;;5092789;28;20028;-69
2022/10/20 00:13:06;;;;;;;9.17;4.60;;;10.70;99.90;;;;;;5092912;28;20089;-69
2022/10/20 00:15:32;;;;;;;12.43;4.63;;;10.80;99.90;;;;;;5075040;28;20028;-68
2022/10/20 00:17:58;;;;;;;11.00;5.20;;;10.70;99.90;;;;;;5092721;28;20107;-68
2022/10/20 00:20:24;;;;;;;8.33;5.27;;;10.80;99.90;;;;;;5092751;28;20468;-69
2022/10/20 00:22:50;;;;;;;9.33;5.50;;;10.70;99.90;;;;;;5092797;28;20485;-68
2022/10/20 00:25:16;;;;;;;11.87;5.70;;;10.80;99.90;;;;;;5092764;28;20043;-70
2022/10/20 00:27:42;;;;;;;11.43;5.90;;;10.80;99.90;;;;;;5092569;28;20441;-70
2022/10/20 00:30:09;;;;;;;10.10;5.93;;;10.70;99.90;;;;;;5092544;28;20111;-70
2022/10/20 00:32:35;;;;;;;11.27;5.23;;;10.70;99.90;;;;;;5092432;28;20129;-69
2022/10/20 00:35:01;;;;;;;9.70;5.67;;;10.70;99.90;;;;;;5092576;28;20114;-68
2022/10/20 00:37:27;;;;;;;11.30;6.30;;;10.70;99.90;;;;;;5092375;28;20020;-69
2022/10/20 00:39:53;;;;;;;10.73;6.10;;;10.60;99.90;;;;;;5092260;28;20024;-67
2022/10/20 00:42:19;;;;;;;9.07;5.60;;;10.60;99.90;;;;;;5092564;28;20111;-69
2022/10/20 00:44:51;;;;;;;10.23;6.00;;;10.60;99.90;;;;;;5092449;28;20135;-69
2022/10/20 00:47:36;;;;;;;11.50;6.23;;;10.70;99.90;;;;;;5092182;28;20024;-69
2022/10/20 00:50:09;;;;;;;11.77;5.90;;;10.60;99.90;;;;;;5092367;28;20032;-69
2022/10/20 00:52:36;;;;;;;11.33;5.70;;;10.60;99.90;;;;;;5092154;28;20027;-70
2022/10/20 00:55:03;;;;;;;11.70;5.40;;;10.60;99.90;;;;;;5092160;28;20024;-69
2022/10/20 00:57:31;;;;;;;10.63;5.20;;;10.60;99.90;;;;;;5092126;28;20073;-68
2022/10/20 00:59:57;;;;;;;11.33;5.00;;;10.60;99.90;;;;;;5092036;28;20044;-69
2022/10/20 01:02:23;;;;;;;9.73;4.77;;;10.60;99.90;;;;;;5074211;28;20028;-69
2022/10/20 01:04:50;;;;;;;7.63;4.90;;;10.50;99.90;;;;;;5092123;28;20076;-68
2022/10/20 01:07:16;;;;;;;8.03;4.73;;;10.50;99.90;;;;;;5091931;28;20035;-68
2022/10/20 01:09:42;;;;;;;10.33;5.33;;;10.50;99.90;;;;;;5091957;28;20551;-69
2022/10/20 01:12:40;;;;;;;15.40;5.53;;;10.50;99.90;;;;;;5073040;28;20081;-70
2022/10/20 01:15:22;;;;;;;8.57;5.27;;;10.50;99.90;;;;;;5092022;28;20020;-70
2022/10/20 01:18:10;;;;;;;9.60;5.37;;;10.40;99.90;;;;;;5091788;28;20016;-68
2022/10/20 01:20:59;;;;;;;9.60;5.30;;;10.40;99.90;;;;;;5091784;28;20074;-69
2022/10/20 01:23:44;;;;;;;13.17;5.43;;;10.40;99.90;;;;;;5091921;28;20107;-69
2022/10/20 01:26:28;;;;;;;10.83;5.83;;;10.30;99.90;;;;;;5091722;28;20016;-68
2022/10/20 01:29:20;;;;;;;8.10;4.87;;;10.30;99.90;;;;;;5091966;28;20477;-69
2022/10/20 01:31:58;;;;;;;14.03;6.00;;;10.30;99.90;;;;;;5091548;28;20070;-67
2022/10/20 01:34:38;;;;;;;8.73;5.27;;;10.30;99.90;;;;;;5092008;28;20039;-68
2022/10/20 01:37:14;;;;;;;10.70;5.30;;;10.30;99.90;;;;;;5091428;28;20088;-69
2022/10/20 01:39:49;;;;;;;10.17;5.70;;;10.30;99.90;;;;;;5091436;28;20036;-69
2022/10/20 01:42:21;;;;;;;10.57;6.00;;;10.30;99.90;;;;;;5091503;28;20116;-69
2022/10/20 01:44:48;;;;;;;9.90;5.83;;;10.30;99.90;;;;;;5091511;28;20118;-67
2022/10/20 01:47:16;;;;;;;9.93;5.70;;;10.30;99.90;;;;;;5073390;28;20039;-68
2022/10/20 01:49:44;;;;;;;10.83;6.10;;;10.30;99.90;;;;;;5091248;28;20043;-68
2022/10/20 01:52:11;;;;;;;11.48;6.13;;;10.30;99.90;;;;;;5091414;28;20396;-69
2022/10/20 01:54:38;;;;;;;10.27;6.03;;;10.20;99.90;;;;;;5091329;28;20024;-68
2022/10/20 01:57:40;;;;;;;11.17;6.37;;;10.20;99.90;;;;;;5073127;28;20460;-69
2022/10/20 02:00:15;;;;;;;11.50;6.37;;;10.20;99.90;;;;;;5091045;28;20020;-68
2022/10/20 02:03:08;;;;;;;10.33;5.87;;;10.20;99.90;;;;;;5091307;28;20032;-68
2022/10/20 02:06:08;;;;;;;11.53;5.93;;;10.20;99.90;;;;;;5073513;28;20032;-69
2022/10/20 02:08:43;;;;;;;10.53;5.77;;;10.10;99.90;;;;;;5073434;28;20492;-69
2022/10/20 02:11:24;;;;;;;13.80;6.40;;;10.10;99.90;;;;;;5073368;28;20631;-67
2022/10/20 02:13:53;;;;;;;10.47;6.17;;;10.10;99.90;;;;;;5091588;28;20028;-69
2022/10/20 02:16:34;;;;;;;12.65;6.45;;;10.10;99.90;;;;;;5090398;28;20038;-68
2022/10/20 02:19:02;;;;;;;14.50;6.37;;;10.10;99.90;;;;;;5090510;28;20024;-68
2022/10/20 02:21:28;;;;;;;13.10;6.53;;;10.20;99.90;;;;;;5090774;28;20048;-69
2022/10/20 02:23:59;;;;;;;10.70;5.93;;;10.20;99.90;;;;;;5091660;28;20085;-68
2022/10/20 02:26:25;;;;;;;9.70;6.20;;;10.20;99.90;;;;;;5094985;28;20066;-68
2022/10/20 02:28:59;;;;;;;10.63;6.57;;;10.20;99.90;;;;;;5094873;28;20036;-69
2022/10/20 02:31:25;;;;;;;12.37;7.07;;;10.20;99.90;;;;;;5094799;28;20032;-69
2022/10/20 02:33:55;;;;;;;14.20;6.07;;;10.20;99.90;;;;;;5077094;28;20028;-69
2022/10/20 02:36:26;;;;;;;12.47;6.90;;;10.20;99.90;;;;;;5076583;28;20024;-68
2022/10/20 02:38:52;;;;;;;10.90;6.20;;;10.10;99.90;;;;;;5094688;28;20031;-68
2022/10/20 02:41:18;;;;;;;13.97;6.67;;;10.10;99.90;;;;;;5094809;28;20419;-69
2022/10/20 02:43:44;;;;;;;13.00;6.87;;;10.10;99.90;;;;;;5094502;28;20028;-68
2022/10/20 02:46:10;;;;;;;10.93;7.03;;;10.10;99.90;;;;;;5094581;28;20114;-69
2022/10/20 02:48:37;;;;;;;13.97;6.93;;;10.10;99.90;;;;;;5094461;28;20106;-69
2022/10/20 02:51:05;;;;;;;10.97;6.30;;;10.10;99.90;;;;;;5094781;28;20032;-68
2022/10/20 02:53:32;;;;;;;11.47;6.40;;;10.10;99.90;;;;;;5094566;28;20028;-69
2022/10/20 02:55:58;;;;;;;11.47;6.53;;;10.10;99.90;;;;;;5094442;28;20070;-68
2022/10/20 02:58:24;;;;;;;9.63;6.60;;;10.10;99.90;;;;;;5094400;28;20056;-68
2022/10/20 03:00:50;;;;;;;11.73;6.77;;;10.10;99.90;;;;;;5094237;28;20055;-69
2022/10/20 03:03:17;;;;;;;11.57;6.60;;;10.10;99.90;;;;;;5094310;28;20024;-69
2022/10/20 03:05:43;;;;;;;9.83;6.03;;;10.10;99.90;;;;;;5094201;28;20020;-69
2022/10/20 03:08:10;;;;;;;11.00;6.83;;;10.00;99.90;;;;;;5094288;28;20590;-68
2022/10/20 03:10:37;;;;;;;12.23;6.90;;;10.10;99.90;;;;;;5075934;28;20473;-68
2022/10/20 03:13:06;;;;;;;10.93;6.53;;;10.10;99.90;;;;;;5093986;28;20036;-68
2022/10/20 03:15:32;;;;;;;12.25;6.88;;;10.10;99.90;;;;;;5094173;28;20039;-69
2022/10/20 03:17:57;;;;;;;10.13;6.40;;;10.00;99.90;;;;;;5075857;28;20032;-68
2022/10/20 03:20:23;;;;;;;15.03;6.67;;;10.10;99.90;;;;;;5093725;28;20089;-68
2022/10/20 03:22:49;;;;;;;12.93;6.67;;;10.10;99.90;;;;;;5093965;28;20036;-68
2022/10/20 03:25:15;;;;;;;11.83;6.63;;;10.10;99.90;;;;;;5093855;28;20485;-68
2022/10/20 03:27:41;;;;;;;12.47;6.43;;;10.10;99.90;;;;;;5093821;28;20040;-68
2022/10/20 03:30:07;;;;;;;10.83;6.53;;;10.10;99.90;;;;;;5093654;28;20709;-68
2022/10/20 03:32:33;;;;;;;11.23;6.87;;;10.00;99.90;;;;;;5093570;28;20032;-68
2022/10/20 03:34:59;;;;;;;10.00;6.40;;;10.00;99.90;;;;;;5093265;28;20021;-68
2022/10/20 03:37:25;;;;;;;10.80;6.73;;;10.10;99.90;;;;;;5093258;28;20479;-68
2022/10/20 03:39:51;;;;;;;17.07;6.60;;;10.00;99.90;;;;;;5093522;28;20031;-68
2022/10/20 03:42:17;;;;;;;13.83;7.13;;;10.00;99.90;;;;;;5093627;28;20634;-68
2022/10/20 03:44:44;;;;;;;15.27;7.00;;;10.00;99.90;;;;;;5093562;28;20070;-68
2022/10/20 03:47:10;;;;;;;12.70;7.50;;;10.00;99.90;;;;;;5093557;28;20048;-68
2022/10/20 03:49:37;;;;;;;13.03;6.97;;;9.90;99.90;;;;;;5093305;28;20028;-67
2022/10/20 03:52:03;;;;;;;10.73;6.70;;;10.00;99.90;;;;;;5093407;28;20032;-67
2022/10/20 03:54:30;;;;;;;12.93;7.03;;;10.00;99.90;;;;;;5093233;28;20024;-71
2022/10/20 03:56:56;;;;;;;9.23;6.50;;;10.10;99.90;;;;;;5093135;28;20066;-68
2022/10/20 03:59:22;;;;;;;12.13;6.80;;;10.00;99.90;;;;;;5093302;28;20480;-69
2022/10/20 04:01:48;;;;;;;15.97;7.13;;;10.00;99.90;;;;;;5094156;28;20038;-71
2022/10/20 04:04:14;;;;;;;9.50;6.27;;;10.00;99.90;;;;;;5093192;28;20028;-70
2022/10/20 04:06:40;;;;;;;14.90;7.50;;;9.90;99.90;;;;;;5074841;28;20030;-69
2022/10/20 04:09:06;;;;;;;10.67;6.70;;;10.00;99.90;;;;;;5092878;28;20388;-69
2022/10/20 04:11:32;;;;;;;12.10;7.23;;;10.00;99.90;;;;;;5092885;28;20043;-69
2022/10/20 04:13:58;;;;;;;15.77;7.47;;;10.00;99.90;;;;;;5093259;28;20046;-68
2022/10/20 04:16:24;;;;;;;13.13;6.80;;;10.00;99.90;;;;;;5088313;28;20056;-68
2022/10/20 04:18:51;;;;;;;12.10;7.17;;;10.00;99.90;;;;;;5088729;28;20529;-69
2022/10/20 04:21:17;;;;;;;12.43;6.97;;;10.00;99.90;;;;;;5091167;28;20111;-69
2022/10/20 04:23:43;;;;;;;13.60;6.70;;;10.00;99.90;;;;;;5090406;28;20196;-69
2022/10/20 04:26:11;;;;;;;15.30;7.23;;;10.00;99.90;;;;;;5091325;28;20097;-70
2022/10/20 04:28:37;;;;;;;11.53;6.73;;;10.00;99.90;;;;;;5072793;28;20119;-69
2022/10/20 04:31:04;;;;;;;9.43;6.70;;;10.00;99.90;;;;;;5091261;28;20459;-68
2022/10/20 04:33:30;;;;;;;11.90;6.53;;;10.00;99.90;;;;;;5072688;28;20035;-68
2022/10/20 04:35:58;;;;;;;10.03;6.87;;;10.00;99.90;;;;;;5091309;28;20430;-68
2022/10/20 04:38:24;;;;;;;14.87;7.10;;;10.00;99.90;;;;;;5090921;28;20028;-68
2022/10/20 04:40:57;;;;;;;11.17;6.80;;;10.00;99.90;;;;;;5090736;28;20430;-68
2022/10/20 04:43:23;;;;;;;16.27;7.17;;;9.90;99.90;;;;;;5090505;28;20086;-68
2022/10/20 04:45:50;;;;;;;14.40;7.33;;;9.90;99.90;;;;;;5090639;28;20070;-68
2022/10/20 04:48:16;;;;;;;12.93;6.80;;;9.90;99.90;;;;;;5089883;28;20507;-70
2022/10/20 04:50:42;;;;;;;11.47;7.03;;;10.00;99.90;;;;;;5090407;28;20036;-68
2022/10/20 04:53:08;;;;;;;9.60;6.37;;;9.90;99.90;;;;;;5090122;28;20039;-68
2022/10/20 04:55:34;;;;;;;13.37;7.40;;;9.90;99.90;;;;;;5090796;28;20032;-68
2022/10/20 04:58:00;;;;;;;12.00;7.23;;;10.00;99.90;;;;;;5090467;28;20024;-68
2022/10/20 05:00:26;;;;;;;13.33;7.03;;;10.00;99.90;;;;;;5090472;28;20017;-68
2022/10/20 05:02:53;;;;;;;13.07;6.80;;;10.00;99.90;;;;;;5071696;28;20058;-68
2022/10/20 05:05:19;;;;;;;11.57;7.17;;;10.00;99.90;;;;;;5090437;28;20032;-69
2022/10/20 05:07:45;;;;;;;13.53;6.57;;;10.00;99.90;;;;;;5071478;28;20051;-69
2022/10/20 05:10:11;;;;;;;12.03;7.07;;;10.00;99.90;;;;;;5089956;28;20071;-69
2022/10/20 05:12:36;;;;;;;12.60;6.97;;;10.00;99.90;;;;;;5089754;28;20036;-69
2022/10/20 05:15:03;;;;;;;10.03;6.60;;;10.10;99.90;;;;;;5090000;28;20031;-68
2022/10/20 05:17:29;;;;;;;10.37;6.93;;;10.10;99.90;;;;;;5089314;28;20482;-67
2022/10/20 05:19:56;;;;;;;12.87;6.97;;;10.10;99.90;;;;;;5089584;28;20032;-68
2022/10/20 05:22:21;;;;;;;13.50;6.90;;;10.20;99.90;;;;;;5088880;28;20032;-68
2022/10/20 05:24:47;;;;;;;12.90;6.90;;;10.20;99.90;;;;;;5089166;28;20016;-70
2022/10/20 05:27:13;;;;;;;9.70;6.43;;;10.10;99.90;;;;;;5089246;28;20705;-68
2022/10/20 05:29:39;;;;;;;14.73;7.67;;;10.10;99.90;;;;;;5089828;28;20032;-69
2022/10/20 05:32:05;;;;;;;15.33;7.13;;;10.10;99.90;;;;;;5089197;28;20031;-68
2022/10/20 05:34:31;;;;;;;12.83;6.90;;;10.10;99.90;;;;;;5089898;28;20104;-68
2022/10/20 05:36:57;;;;;;;12.70;7.07;;;10.10;99.90;;;;;;5089633;28;20114;-68
2022/10/20 05:39:22;;;;;;;12.23;6.70;;;10.10;99.90;;;;;;5090072;28;20047;-68
2022/10/20 05:41:48;;;;;;;11.27;6.70;;;10.10;99.90;;;;;;5071731;28;20032;-68
2022/10/20 05:44:14;;;;;;;11.73;6.30;;;10.10;99.90;;;;;;5090024;28;20036;-68
2022/10/20 05:46:41;;;;;;;13.17;6.20;;;10.10;99.90;;;;;;5071238;28;20393;-68
2022/10/20 05:49:14;;;;;;;12.50;6.90;;;10.10;99.90;;;;;;5072039;28;20508;-66
2022/10/20 05:51:40;;;;;;;11.43;6.40;;;10.10;99.90;;;;;;5089829;28;20077;-70
2022/10/20 05:54:06;;;;;;;11.43;6.60;;;10.10;99.90;;;;;;5089801;28;20032;-67
2022/10/20 05:56:33;;;;;;;12.80;7.13;;;10.00;99.90;;;;;;5089677;28;20031;-68
2022/10/20 05:58:59;;;;;;;11.20;6.93;;;10.10;99.90;;;;;;5089460;28;20028;-68
2022/10/20 06:01:38;;;;;;;12.50;7.10;;;10.10;99.90;;;;;;5089524;28;20042;-68
2022/10/20 06:04:07;;;;;;;15.47;7.10;;;10.10;99.90;;;;;;5071753;28;20040;-68
2022/10/20 06:06:34;;;;;;;12.30;7.35;;;10.20;99.90;;;;;;5089152;28;20435;-68
2022/10/20 06:09:00;;;;;;;14.60;7.00;;;10.10;99.90;;;;;;5089486;28;20039;-68
2022/10/20 06:11:26;;;;;;;18.43;8.40;;;10.10;99.90;;;;;;5089321;28;20020;-68
2022/10/20 06:13:52;;;;;;;16.30;8.23;;;10.10;99.90;;;;;;5090004;28;20035;-68
2022/10/20 06:16:23;;;;;;;14.70;7.80;;;10.20;99.90;;;;;;5089689;28;20024;-68
2022/10/20 06:18:49;;;;;;;15.43;7.73;;;10.20;99.90;;;;;;5181120;22;20066;-71
2022/10/20 06:21:20;;;;;;;11.97;7.20;;;10.20;99.90;;;;;;5069535;28;20052;-71
2022/10/20 06:23:47;;;;;;;13.30;7.40;;;10.20;99.90;;;;;;5069822;28;20040;-71
2022/10/20 06:26:22;;;;;;;14.37;7.90;;;10.30;99.90;;;;;;5069382;28;20029;-69
2022/10/20 06:28:53;;;;;;;12.77;7.30;;;10.40;99.90;;;;;;5069227;28;20036;-69
2022/10/20 06:31:22;;;;;;;14.23;7.20;;;10.40;99.90;;;;;;5069411;28;20128;-69
2022/10/20 06:33:48;;;;;;;18.83;7.57;;;10.50;99.90;;;;;;5067947;28;20028;-71
2022/10/20 06:36:15;;;;;;;17.37;8.97;;;10.60;99.90;;;;;;5069353;28;20040;-70
2022/10/20 06:38:42;;;;;;;16.40;7.93;;;10.60;99.90;;;;;;5068976;28;20021;-70
2022/10/20 06:41:11;;;;;;;14.77;8.57;;;10.70;99.90;;;;;;5069038;28;20024;-70
2022/10/20 06:43:37;;;;;;;13.57;8.18;;;10.80;99.90;;;;;;5069522;28;20025;-70
2022/10/20 06:46:06;;;;;;;14.30;7.27;;;10.90;99.90;;;;;;5068968;28;20111;-69
2022/10/20 06:48:32;;;;;;;;;;;11.00;99.90;;;;;;5069203;28;20028;-69
2022/10/20 06:51:05;;;;;;;15.30;7.30;;;11.10;99.90;;;;;;5069458;28;20336;-69
2022/10/20 06:53:32;;;;;;;11.67;6.70;;;11.40;99.90;;;;;;5069032;28;20108;-71
2022/10/20 06:56:06;;;;;;;11.37;6.40;;;12.10;99.90;;;;;;5069445;28;20465;-68
2022/10/20 06:58:35;;;;;;;10.70;6.30;;;12.40;99.90;;;;;;5069170;28;20035;-69
2022/10/20 07:01:16;;;;;;;14.17;6.87;;;12.50;99.90;;;;;;5069457;28;20112;-71
2022/10/20 07:03:43;;;;;;;9.83;5.97;;;12.40;99.90;;;;;;5068628;28;20417;-70
2022/10/20 07:06:16;;;;;;;11.97;6.67;;;12.40;99.90;;;;;;5050800;28;20103;-69
2022/10/20 07:08:42;;;;;;;10.10;6.03;;;12.30;99.90;;;;;;5069215;28;20052;-69
2022/10/20 07:11:16;;;;;;;10.20;6.70;;;12.30;99.90;;;;;;5070621;28;20102;-69
2022/10/20 07:13:42;;;;;;;12.63;6.70;;;12.30;99.90;;;;;;5072478;28;20036;-69
2022/10/20 07:16:12;;;;;;;12.98;6.82;;;12.20;99.90;;;;;;5072375;28;20116;-69
2022/10/20 07:18:38;;;;;;;10.93;6.47;;;12.30;99.90;;;;;;5071952;28;20056;-69
2022/10/20 07:21:06;;;;;;;10.07;6.10;;;12.40;99.90;;;;;;5072331;28;20083;-69
2022/10/20 07:23:34;;;;;;;13.98;6.63;;;12.40;99.90;;;;;;5072314;28;20029;-69
2022/10/20 07:26:00;;;;;;;9.18;5.57;;;12.40;99.90;;;;;;5072381;28;20020;-69
2022/10/20 07:28:26;;;;;;;13.25;6.55;;;12.40;99.90;;;;;;5072388;28;20112;-70
2022/10/20 07:30:52;;;;;;;12.93;6.35;;;12.40;99.90;;;;;;5071596;28;20104;-69
2022/10/20 07:33:18;;;;;;;9.40;6.53;;;12.50;99.90;;;;;;5071678;28;20025;-69
2022/10/20 07:35:44;;;;;;;11.68;6.75;;;12.50;99.90;;;;;;5072029;28;20100;-69
2022/10/20 07:38:09;;;;;;;9.95;6.32;;;12.50;99.90;;;;;;5070997;28;20103;-69
2022/10/20 07:40:35;;;;;;;13.93;7.00;;;12.50;99.90;;;;;;5054751;28;20025;-69
2022/10/20 07:43:01;;;;;;;11.00;7.05;;;12.60;99.90;;;;;;5068503;28;20036;-69
2022/10/20 07:45:27;;;;;;;12.00;7.40;;;12.60;99.90;;;;;;5071810;28;20052;-69
2022/10/20 07:47:53;;;;;;;13.20;7.72;;;12.60;99.90;;;;;;5071312;28;20039;-72
2022/10/20 07:50:18;;;;;;;10.48;7.30;;;12.70;99.90;;;;;;5072304;28;20513;-69
2022/10/20 07:52:48;;;;;;;14.63;7.72;;;12.70;99.90;;;;;;5071984;28;20116;-70
2022/10/20 07:55:14;;;;;;;14.15;7.55;;;12.70;99.90;;;;;;5072580;28;20031;-71
2022/10/20 07:57:40;;;;;;;12.77;6.85;;;12.80;99.90;;;;;;5071800;28;20028;-72
2022/10/20 08:00:06;;;;;;;13.55;7.25;;;12.80;99.90;;;;;;5054102;28;20036;-71
2022/10/20 08:02:39;;;;;;;11.73;6.93;;;12.90;99.90;;;;;;5071513;28;20041;-72
2022/10/20 08:05:06;;;;;;;12.65;7.20;;;12.90;99.90;;;;;;5072248;28;20028;-71
2022/10/20 08:07:32;;;;;;;11.18;7.00;;;12.90;99.90;;;;;;5071810;28;20119;-70
2022/10/20 08:09:58;;;;;;;15.23;9.85;;;13.00;99.90;;;;;;5070811;28;20564;-71
2022/10/20 08:12:24;;;;;;;14.15;7.90;;;13.00;99.90;;;;;;5069853;28;20032;-71
2022/10/20 08:14:50;;;;;;;12.73;8.23;;;13.00;99.90;;;;;;5036755;28;20032;-72
2022/10/20 08:17:17;;;;;;;13.52;7.55;;;13.00;99.90;;;;;;5071046;28;20020;-70
2022/10/20 08:19:42;;;;;;;12.75;7.00;;;13.00;99.90;;;;;;5071231;28;20040;-70
2022/10/20 08:22:08;;;;;;;13.18;7.30;;;13.10;99.90;;;;;;5070333;28;20040;-71
2022/10/20 08:24:35;;;;;;;15.50;7.47;;;13.10;99.90;;;;;;5070840;28;20063;-70
2022/10/20 08:27:01;;;;;;;14.20;7.78;;;13.10;99.90;;;;;;5070886;28;20060;-70
2022/10/20 08:29:27;;;;;;;14.63;7.53;;;13.10;99.90;;;;;;5069840;28;20074;-70
2022/10/20 08:31:52;;;;;;;15.40;7.43;;;13.20;99.90;;;;;;5070148;28;20078;-70
2022/10/20 08:34:18;;;;;;;11.60;7.60;;;13.20;99.90;;;;;;5070011;28;20060;-71
2022/10/20 08:36:44;;;;;;;14.95;7.10;;;13.20;99.90;;;;;;5070267;28;20025;-69
2022/10/20 08:39:10;;;;;;;15.55;8.00;;;13.30;99.90;;;;;;5069591;28;20036;-69
2022/10/20 08:41:41;;;;;;;13.65;7.55;;;13.40;99.90;;;;;;5070682;28;20046;-69
2022/10/20 08:44:08;;;;;;;16.20;7.78;;;13.40;99.90;;;;;;5070466;28;20141;-69
2022/10/20 08:46:37;;;;;;;10.35;7.13;;;13.40;99.90;;;;;;5069939;28;20028;-69
2022/10/20 08:49:10;;;;;;;10.32;6.75;;;13.40;99.90;;;;;;5069669;28;20039;-69
2022/10/20 08:51:37;;;;;;;11.15;6.68;;;13.40;99.90;;;;;;5069754;28;20036;-69
2022/10/20 08:54:10;;;;;;;15.93;7.50;;;13.50;99.90;;;;;;5070334;28;20024;-69
2022/10/20 08:56:36;;;;;;;12.60;7.93;;;13.40;99.90;;;;;;5069524;28;20025;-69
2022/10/20 08:59:02;;;;;;;11.50;7.05;;;13.50;99.90;;;;;;5070727;28;20028;-69
2022/10/20 09:01:34;;;;;;;12.07;6.70;;;13.50;99.90;;;;;;5070150;28;20033;-69
2022/10/20 09:04:37;;;;;;;14.52;7.32;;;13.50;99.90;;;;;;5071008;28;20310;-70
2022/10/20 09:07:29;;;;;;;15.38;8.10;;;13.50;99.90;;;;;;5053890;28;20105;-68
2022/10/20 09:10:21;;;;;;;14.02;6.78;;;13.60;99.90;;;;;;5070682;28;20063;-70
2022/10/20 09:12:48;;;;;;;11.25;6.45;;;13.60;99.90;;;;;;5069896;28;20451;-69
2022/10/20 09:15:16;;;;;;;10.38;7.07;;;13.60;99.90;;;;;;5069877;28;20020;-69
2022/10/20 09:18:08;;;;;;;12.10;6.60;;;13.60;99.90;;;;;;5051606;28;20389;-68
2022/10/20 09:20:59;;;;;;;10.90;6.68;;;13.70;99.90;;;;;;5070547;28;20033;-68
2022/10/20 09:23:47;;;;;;;11.57;7.25;;;13.70;99.90;;;;;;5069953;28;20094;-68
2022/10/20 09:26:19;;;;;;;12.82;6.03;;;13.70;99.90;;;;;;5070424;28;20032;-68
2022/10/20 09:28:49;;;;;;;10.88;6.32;;;13.70;99.90;;;;;;5069734;28;20024;-69
2022/10/20 09:31:33;;;;;;;11.20;6.60;;;13.70;99.90;;;;;;5070215;28;20033;-68
2022/10/20 09:33:59;;;;;;;12.18;6.57;;;13.80;99.90;;;;;;5069464;28;20020;-68
2022/10/20 09:36:32;;;;;;;11.20;7.13;;;13.80;99.90;;;;;;5070066;28;20029;-68
2022/10/20 09:38:59;;;;;;;11.07;6.90;;;13.80;99.90;;;;;;5070077;28;20059;-68
2022/10/20 09:41:30;;;;;;;9.07;6.40;;;13.80;99.90;;;;;;5069977;28;20020;-68
2022/10/20 09:44:07;;;;;;;15.75;6.70;;;13.80;99.90;;;;;;5068920;28;20041;-68
2022/10/20 09:46:50;;;;;;;12.43;6.35;;;13.80;99.90;;;;;;5068138;28;20036;-67
2022/10/20 09:49:28;;;;;;;13.20;6.78;;;13.80;99.90;;;;;;5069004;28;20493;-67
2022/10/20 09:51:54;;;;;;;11.50;6.63;;;13.70;99.90;;;;;;5069662;28;20058;-68
2022/10/20 09:54:23;;;;;;;10.07;6.32;;;13.70;99.90;;;;;;5052020;28;20501;-69
2022/10/20 09:56:51;;;;;;;11.20;6.57;;;13.70;99.90;;;;;;5069302;28;20034;-70
2022/10/20 09:59:32;;;;;;;10.45;6.38;;;13.70;99.90;;;;;;5069613;28;20258;-70
2022/10/20 10:02:00;;;;;;;11.10;6.53;;;13.70;99.90;;;;;;5069291;28;20020;-70
2022/10/20 10:04:35;;;;;;;13.43;6.80;;;13.70;99.90;;;;;;5069846;28;20067;-71
2022/10/20 10:07:04;;;;;;;12.70;6.28;;;13.70;99.90;;;;;;5069809;28;20028;-72
2022/10/20 10:09:36;;;;;;;13.00;6.97;;;13.70;99.90;;;;;;5069765;28;20029;-72
2022/10/20 10:12:11;;;;;;;10.25;6.45;;;13.70;99.90;;;;;;5051430;28;20032;-72
2022/10/20 10:14:50;;;;;;;11.63;6.50;;;13.70;99.90;;;;;;5070204;28;20029;-72
2022/10/20 10:17:37;;;;;;;9.00;6.78;;;13.70;99.90;;;;;;5069336;28;20299;-72
2022/10/20 10:20:26;;;;;;;13.68;5.93;;;13.70;99.90;;;;;;5069467;28;20543;-71
2022/10/20 10:23:05;;;;;;;13.50;7.07;;;13.70;99.90;;;;;;5048948;28;20041;-71
2022/10/20 10:25:31;;;;;;;11.10;6.07;;;13.70;99.90;;;;;;5049842;28;20459;-71
2022/10/20 10:27:59;;;;;;;12.35;6.30;;;13.70;99.90;;;;;;5048587;28;20065;-72
2022/10/20 10:30:29;;;;;;;11.30;6.10;;;13.80;99.90;;;;;;5049748;28;20033;-72
2022/10/20 10:32:56;;;;;;;10.40;6.72;;;13.80;99.90;;;;;;5031301;28;20037;-71
2022/10/20 10:35:38;;;;;;;10.27;6.53;;;13.90;99.90;;;;;;5049812;28;20079;-73
2022/10/20 10:38:08;;;;;;;10.73;6.68;;;13.90;99.90;;;;;;5031474;28;20052;-74
2022/10/20 10:40:35;;;;;;;;;;;13.90;99.90;;;;;;5066209;28;20028;-74
2022/10/20 10:43:16;;;;;;;14.38;7.75;;;13.90;99.90;;;;;;5068935;28;20253;-74
2022/10/20 10:45:48;;;;;;;13.07;6.90;;;13.90;99.90;;;;;;5071443;28;20561;-75
2022/10/20 10:48:29;;;;;;;13.60;7.55;;;13.90;99.90;;;;;;5072277;28;20108;-74
2022/10/20 10:51:00;;;;;;;14.27;7.70;;;13.90;99.90;;;;;;5072986;28;20098;-74
2022/10/20 10:54:05;;;;;;;13.63;7.20;;;13.90;99.90;;;;;;5050987;28;20644;-75
2022/10/20 10:56:43;;;;;;;13.15;7.47;;;13.90;99.90;;;;;;5041993;28;20132;-74
2022/10/20 10:59:31;;;;;;;15.15;7.85;;;13.90;99.90;;;;;;5053304;28;20083;-74
2022/10/20 11:02:19;;;;;;;14.77;7.88;;;13.90;99.90;;;;;;5051884;28;20033;-74
2022/10/20 11:04:54;;;;;;;11.00;7.22;;;13.90;99.90;;;;;;5053682;28;20078;-75
2022/10/20 11:07:40;;;;;;;11.57;7.35;;;13.90;99.90;;;;;;5053138;28;20029;-74
2022/10/20 11:10:25;;;;;;;13.25;7.85;;;13.90;99.90;;;;;;5061362;28;20028;-73
2022/10/20 11:13:13;;;;;;;10.90;7.07;;;13.90;99.90;;;;;;5072374;28;20572;-72
2022/10/20 11:15:59;;;;;;;12.52;7.60;;;13.90;99.90;;;;;;5072109;28;20032;-74
2022/10/20 11:18:35;;;;;;;11.50;7.78;;;13.90;99.90;;;;;;5070895;28;20124;-74
2022/10/20 11:21:25;;;;;;;11.50;7.65;;;13.90;99.90;;;;;;5071117;28;20107;-74
2022/10/20 11:24:14;;;;;;;12.88;8.15;;;13.90;99.90;;;;;;5054053;28;20492;-74
2022/10/20 11:26:44;;;;;;;13.80;7.95;;;13.90;99.90;;;;;;5070563;28;20370;-75
2022/10/20 11:29:33;;;;;;;12.63;8.00;;;13.90;99.90;;;;;;5068463;28;20031;-74
2022/10/20 11:32:16;;;;;;;15.57;7.72;;;13.90;99.90;;;;;;5072266;28;20029;-73
2022/10/20 11:34:44;;;;;;;14.23;7.80;;;13.80;99.90;;;;;;5073044;28;20504;-70
2022/10/20 11:37:24;;;;;;;14.38;8.25;;;13.80;99.90;;;;;;5072138;28;20024;-73
2022/10/20 11:40:02;;;;;;;18.05;8.00;;;13.80;99.90;;;;;;5072191;28;20112;-71
2022/10/20 11:42:46;;;;;;;13.00;8.35;;;13.80;99.90;;;;;;5070537;28;20440;-72
2022/10/20 11:45:24;;;;;;;12.85;8.48;;;13.80;99.90;;;;;;5053400;28;20036;-72
2022/10/20 11:48:34;;;;;;;12.55;8.95;;;13.80;99.90;;;;;;5086086;28;20119;-72
2022/10/20 11:51:05;;;;;;;15.20;9.00;;;13.80;99.90;;;;;;5071947;28;20400;-71
2022/10/20 11:53:37;;;;;;;13.63;8.75;;;13.80;99.90;;;;;;5071493;28;20051;-71
2022/10/20 11:56:40;;;;;;;14.68;9.32;;;13.70;99.90;;;;;;5071631;28;20066;-71
2022/10/20 11:59:24;;;;;;;15.05;9.80;;;13.70;99.90;;;;;;5071912;28;20032;-71
2022/10/20 12:02:02;;;;;;;18.27;9.50;;;13.70;99.90;;;;;;5071218;28;20127;-70
2022/10/20 12:05:06;;;;;;;15.40;8.98;;;13.70;99.90;;;;;;5072253;28;20380;-70
2022/10/20 12:07:56;;;;;;;18.40;9.15;;;13.70;99.90;;;;;;5071674;28;20025;-70
2022/10/20 12:10:42;;;;;;;16.05;8.40;;;14.70;99.90;;;;;;5071362;28;20082;-71
2022/10/20 12:13:13;;;;;;;16.10;8.75;;;15.20;99.90;;;;;;5071715;28;20039;-70
2022/10/20 12:15:48;;;;;;;14.98;8.10;;;15.50;99.90;;;;;;5071878;28;20070;-70
2022/10/20 12:20:52;;;;;;;15.13;9.48;;;15.50;99.90;;;;;;5027097;28;20048;-69
2022/10/20 12:23:43;;;;;;;17.55;9.80;;;15.10;99.90;;;;;;5031431;28;20029;-69
2022/10/20 12:26:28;;;;;;;12.20;8.75;;;14.80;99.90;;;;;;5031575;28;20386;-70
2022/10/20 12:28:56;;;;;;;16.70;10.77;;;14.60;99.90;;;;;;5031671;28;20401;-70
2022/10/20 12:31:22;;;;;;;13.67;9.57;;;14.40;99.90;;;;;;5030914;28;20056;-70
2022/10/20 12:33:53;;;;;;;16.08;10.30;;;14.30;99.90;;;;;;5030676;28;20025;-69
2022/10/20 12:36:31;;;;;;;19.23;11.10;;;14.20;99.90;;;;;;5031196;28;20115;-70
2022/10/20 12:39:14;;;;;;;15.55;10.82;;;14.10;99.90;;;;;;5031330;28;20454;-71
2022/10/20 12:42:04;;;;;;;17.83;11.70;;;14.00;99.90;;;;;;5030919;28;20029;-69
2022/10/20 12:44:40;;;;;;;;;;;13.90;99.90;;;;;;5031631;28;20450;-69
2022/10/20 12:47:07;;;;;;;18.15;11.25;;;13.90;99.90;;;;;;5031112;28;19995;-70
2022/10/20 12:49:37;;;;;;;16.42;10.77;;;13.90;99.90;;;;;;5030785;28;20095;-69
2022/10/20 12:52:06;;;;;;;19.92;11.90;;;13.80;99.90;;;;;;5031303;28;20048;-70
2022/10/20 12:54:40;;;;;;;17.75;11.52;;;13.80;99.90;;;;;;5031206;28;20048;-70
2022/10/20 12:57:30;;;;;;;18.20;12.18;;;13.80;99.90;;;;;;5030764;28;20029;-70
2022/10/20 12:59:56;;;;;;;18.58;12.32;;;13.80;99.90;;;;;;5030722;28;20369;-70
2022/10/20 13:02:22;;;;;;;16.98;11.57;;;13.90;99.90;;;;;;5030487;28;20044;-70